ADDS METAR Data INFO
IDs: Format: Raw Decoded Include TAF

Data at: 0316 UTC 20 Jul 2018

KDAW 200251Z AUTO 00000KT 10SM CLR 17/12 A3012 RMK AO2 SLP196 T01670122 51016
KDAW 200151Z AUTO 18003KT 10SM CLR 17/12 A3011 RMK AO2 SLP192 T01720117
KDAW 200051Z AUTO 00000KT 10SM CLR 18/12 A3009 RMK AO2 SLP186 T01830117
KDAW 192351Z AUTO 17005KT 10SM CLR 21/11 A3007 RMK AO2 SLP179 T02110111 10272 20211 53007
KDAW 192251Z AUTO VRB04KT 10SM CLR 23/12 A3006 RMK AO2 SLP174 T02330122
KDAW 192151Z AUTO 17007KT 10SM CLR 24/13 A3005 RMK AO2 SLP174 T02440133
KDAW 192051Z AUTO 14006KT 10SM CLR 26/13 A3005 RMK AO2 SLP172 T02610133 57005
KDAW 191951Z AUTO 17008KT 10SM CLR 26/13 A3006 RMK AO2 SLP174 T02610128
KDAW 191851Z AUTO 00000KT 10SM CLR 27/09 A3006 RMK AO2 SLP176 T02670089
KDAW 191751Z AUTO 00000KT 10SM CLR 26/09 A3007 RMK AO2 SLP177 T02610094 10272 20172 58008
KDAW 191651Z AUTO VRB03KT 10SM CLR 25/10 A3008 RMK AO2 SLP181 T02500100
KDAW 191551Z AUTO VRB04KT 10SM CLR 24/09 A3008 RMK AO2 SLP184 T02440089
KDAW 191451Z AUTO 03007KT 350V050 10SM CLR 24/08 A3009 RMK AO2 SLP185 T02390083 53007
KDAW 191351Z AUTO 33004KT 10SM CLR 23/09 A3008 RMK AO2 SLP183 T02280094
KDAW 191251Z AUTO 31005KT 10SM CLR 21/11 A3007 RMK AO2 SLP180 T02060111
KDAW 191151Z AUTO 33005KT 10SM CLR 17/12 A3007 RMK AO2 SLP178 T01720117 10172 20106 51013
KDAW 191051Z AUTO 33007KT 10SM CLR 14/11 A3006 RMK AO2 SLP175 T01390106
KDAW 190951Z AUTO 32007KT 10SM CLR 11/10 A3005 RMK AO2 SLP172 T01110100
KDAW 190851Z AUTO 31007KT 10SM CLR 11/09 A3003 RMK AO2 SLP165 T01110094 53008
KDAW 190751Z AUTO 31008KT 10SM CLR 12/09 A3002 RMK AO2 SLP160 T01170094
KDAW 190651Z AUTO 30008KT 10SM CLR 14/09 A3001 RMK AO2 SLP158 T01390089
KDAW 190551Z AUTO 31007KT 10SM CLR 14/09 A3001 RMK AO2 SLP157 T01390094 10222 20133 53012
KDAW 190451Z AUTO 31007KT 10SM CLR 15/09 A2999 RMK AO2 SLP151 T01500094 402610144
KDAW 190351Z AUTO 31006KT 10SM CLR 16/11 A2998 RMK AO2 SLP149 T01560106
KDAW 190251Z AUTO 33005KT 10SM CLR 16/11 A2997 RMK AO2 SLP145 T01560111 51023
KDAW 190151Z AUTO 33003KT 10SM CLR 18/11 A2996 RMK AO2 SLP141 T01780106
KDAW 190051Z AUTO 32004KT 10SM CLR 18/11 A2993 RMK AO2 SLP131 T01830111
KDAW 182351Z AUTO 31009KT 10SM CLR 22/09 A2990 RMK AO2 SLP122 T02220094 10261 20222 53012
KDAW 182251Z AUTO 32010KT 10SM CLR 24/10 A2989 RMK AO2 SLP116 T02390100
KDAW 182151Z AUTO 33009KT 10SM CLR 26/10 A2987 RMK AO2 SLP112 T02560100
KDAW 182051Z AUTO 33009KT 10SM CLR 26/11 A2987 RMK AO2 SLP110 T02610106 51005
KDAW 181951Z AUTO 31005KT 10SM CLR 26/09 A2987 RMK AO2 SLP110 T02610094
KDAW 181851Z AUTO 33006KT 10SM CLR 26/11 A2987 RMK AO2 SLP110 T02560111
KDAW 181751Z AUTO 31013G17KT 10SM CLR 26/12 A2985 RMK AO2 SLP106 T02560117 10256 20200 56003
KDAW 181651Z AUTO 33012G19KT 10SM CLR 25/11 A2986 RMK AO2 SLP107 T02500111
KDAW 181551Z AUTO 33013KT 10SM CLR 25/13 A2986 RMK AO2 SLP107 T02500128